Buras, Louisiana
Current Conditions -  °F | °C
As of 4:39 PM on Friday 24 Oct 2014 (Local Time) from K1B7 Reporting Station
Clear Clear  
Wind Chill: 72°   Ceiling: Unl
Heat Index: 72°   Visibility: 10mi
Dew Point: 54°   Wind: 8mph
Humidity: 53%   Direction: 20°NNE
Pressure: 30.03"   Gusts: NA
Location:  29.35°N, 89.52°W
Report Text: K1B7 242139Z 02007KT 10SM SKC 22/12 A3003 RMK LAST
Loading
Personal Weather Stations






























Interactive Weather Map
Tropical Storm Tracking
New forecast layout! Learn more

10-Day Weather Forecast

Advertisements
Track Severe Weather on mobile